createdAt,value
2019-02-18T00:00:29.481Z,0.75
2019-02-18T00:03:00.089Z,0.00
2019-02-18T00:05:30.600Z,0.50
2019-02-18T00:08:00.756Z,1.00
2019-02-18T00:10:31.984Z,0.50
2019-02-18T00:13:02.534Z,1.00
2019-02-18T00:15:32.649Z,0.00
2019-02-18T00:18:03.277Z,1.00
2019-02-18T00:20:33.336Z,0.75
2019-02-18T00:23:03.628Z,2.50
2019-02-18T00:25:33.856Z,0.00
2019-02-18T00:28:04.083Z,1.00
2019-02-18T00:30:34.701Z,1.00
2019-02-18T00:33:04.813Z,0.75
2019-02-18T00:35:35.407Z,0.50
2019-02-18T00:38:06.466Z,0.00
2019-02-18T00:40:36.679Z,0.25
2019-02-18T00:43:06.669Z,0.00
2019-02-18T00:45:37.236Z,0.00
2019-02-18T00:48:09.274Z,2.50
2019-02-18T00:50:39.430Z,1.00
2019-02-18T00:53:09.748Z,0.00
2019-02-18T00:55:40.270Z,2.50
2019-02-18T00:58:10.820Z,3.00
2019-02-18T01:00:41.044Z,0.00
2019-02-18T01:03:11.154Z,1.00
2019-02-18T01:05:41.393Z,1.00
2019-02-18T01:08:12.195Z,3.00
2019-02-18T01:10:42.412Z,1.00
2019-02-18T01:13:13.072Z,1.00
2019-02-18T01:15:43.564Z,1.00
2019-02-18T01:18:13.714Z,1.00
2019-02-18T01:20:43.928Z,3.00
2019-02-18T01:23:14.458Z,1.00
2019-02-18T01:25:44.663Z,0.00
2019-02-18T01:28:15.245Z,1.00
2019-02-18T01:30:45.817Z,0.75
2019-02-18T01:33:16.273Z,0.50
2019-02-18T01:35:47.429Z,0.00
2019-02-18T01:38:17.716Z,1.00
2019-02-18T01:40:49.737Z,1.00
2019-02-18T01:43:19.909Z,0.00
2019-02-18T01:45:50.143Z,1.00
2019-02-18T01:48:20.352Z,1.00
2019-02-18T01:50:51.198Z,0.00
2019-02-18T01:53:21.833Z,0.00
2019-02-18T01:55:51.960Z,0.25
2019-02-18T01:58:22.157Z,1.50
2019-02-18T02:00:52.740Z,0.00
2019-02-18T02:03:25.299Z,0.00
2019-02-18T02:05:56.843Z,0.00
2019-02-18T02:08:27.041Z,0.00
2019-02-18T02:10:57.876Z,0.00
2019-02-18T02:13:30.616Z,1.00
2019-02-18T02:16:01.163Z,0.00
2019-02-18T02:18:32.317Z,0.00
2019-02-18T02:21:03.066Z,0.75
2019-02-18T02:23:33.277Z,2.00
2019-02-18T02:26:03.521Z,0.25
2019-02-18T02:28:33.721Z,1.00
2019-02-18T02:31:04.050Z,1.00
2019-02-18T02:33:34.589Z,0.00
2019-02-18T02:36:04.725Z,0.00
2019-02-18T02:38:35.043Z,1.00
2019-02-18T02:41:06.169Z,0.25
2019-02-18T02:43:36.686Z,0.50
2019-02-18T02:46:06.842Z,2.50
2019-02-18T02:48:37.037Z,1.00
2019-02-18T02:51:07.284Z,0.25
2019-02-18T02:53:37.930Z,0.00
2019-02-18T02:56:08.036Z,1.00
2019-02-18T02:58:38.264Z,3.00
2019-02-18T03:01:08.902Z,0.50
2019-02-18T03:03:39.076Z,1.50
2019-02-18T03:06:09.197Z,1.00
2019-02-18T03:08:39.849Z,2.00
2019-02-18T03:11:11.003Z,2.50
2019-02-18T03:13:41.108Z,1.00
2019-02-18T03:16:11.340Z,2.00
2019-02-18T03:18:41.936Z,1.00
2019-02-18T03:21:12.293Z,1.50
2019-02-18T03:23:42.109Z,1.00
2019-02-18T03:26:12.622Z,0.75
2019-02-18T03:29:04.930Z,0.75
2019-02-18T03:31:35.165Z,0.75
2019-02-18T03:34:08.149Z,1.00
2019-02-18T03:36:38.995Z,3.00
2019-02-18T03:39:09.058Z,3.00
2019-02-18T03:41:40.989Z,0.00
2019-02-18T03:44:11.777Z,1.00
2019-02-18T03:46:42.547Z,1.50
2019-02-18T03:49:13.173Z,1.00
2019-02-18T03:51:44.208Z,1.00
2019-02-18T03:54:15.144Z,1.00
2019-02-18T03:56:45.680Z,2.00
2019-02-18T03:59:15.909Z,3.75
2019-02-18T04:01:51.022Z,1.00
2019-02-18T04:04:21.862Z,0.00
2019-02-18T04:06:52.649Z,1.00
2019-02-18T04:09:22.844Z,0.50
2019-02-18T04:11:53.077Z,1.00
2019-02-18T04:14:23.306Z,0.00
2019-02-18T04:16:53.483Z,1.00
2019-02-18T04:19:24.144Z,1.50
2019-02-18T04:21:54.282Z,2.50
2019-02-18T04:24:24.469Z,3.00
2019-02-18T04:26:55.326Z,0.00
2019-02-18T04:29:25.219Z,2.75
2019-02-18T04:31:55.727Z,2.50
2019-02-18T04:34:26.396Z,0.00
2019-02-18T04:36:56.910Z,1.00
2019-02-18T04:39:27.575Z,1.00
2019-02-18T04:41:57.897Z,1.00
2019-02-18T04:44:28.245Z,2.00
2019-02-18T04:47:02.294Z,1.00
2019-02-18T04:49:32.530Z,0.75
2019-02-18T04:52:05.909Z,2.50
2019-02-18T04:54:36.044Z,4.50
2019-02-18T04:57:06.380Z,1.00
2019-02-18T04:59:36.469Z,1.00
2019-02-18T05:02:06.722Z,1.00
2019-02-18T05:04:37.024Z,3.00
2019-02-18T05:07:07.166Z,1.00
2019-02-18T05:09:39.753Z,1.00
2019-02-18T05:12:09.230Z,3.00
2019-02-18T05:14:39.444Z,0.50
2019-02-18T05:17:09.989Z,1.00
2019-02-18T05:19:40.417Z,2.00
2019-02-18T05:22:10.621Z,1.00
2019-02-18T05:24:42.801Z,1.50
2019-02-18T05:27:13.033Z,3.00
2019-02-18T05:29:43.150Z,1.00
2019-02-18T05:32:13.992Z,6.00
2019-02-18T05:34:43.995Z,5.00
2019-02-18T05:37:14.816Z,3.00
2019-02-18T05:39:45.360Z,3.50
2019-02-18T05:42:15.871Z,1.50
2019-02-18T05:44:46.642Z,3.50
2019-02-18T05:47:17.841Z,3.75
2019-02-18T05:49:48.696Z,5.50
2019-02-18T05:52:18.813Z,3.50
2019-02-18T05:54:52.846Z,3.50
2019-02-18T05:57:23.185Z,3.00
2019-02-18T05:59:54.847Z,5.00
2019-02-18T06:02:25.330Z,1.00
2019-02-18T06:04:55.861Z,2.50
2019-02-18T06:07:28.717Z,5.00
2019-02-18T06:09:58.761Z,1.00
2019-02-18T06:12:29.241Z,1.50
2019-02-18T06:14:59.441Z,3.25
2019-02-18T06:17:29.773Z,6.25
2019-02-18T06:20:00.351Z,6.00
2019-02-18T06:22:31.965Z,3.25
2019-02-18T06:25:02.545Z,4.00
2019-02-18T06:27:32.700Z,3.75
2019-02-18T06:30:02.925Z,3.50
2019-02-18T06:32:33.518Z,5.00
2019-02-18T06:35:03.758Z,3.00
2019-02-18T06:37:33.895Z,4.00
2019-02-18T06:40:04.117Z,4.50
2019-02-18T06:42:34.322Z,1.50
2019-02-18T06:45:11.967Z,3.25
2019-02-18T06:47:42.754Z,1.00
2019-02-18T06:50:13.074Z,4.00
2019-02-18T06:52:43.602Z,5.00
2019-02-18T06:55:14.136Z,3.50
2019-02-18T06:57:58.914Z,6.25
2019-02-18T07:00:46.123Z,3.25
2019-02-18T07:03:33.100Z,3.00
2019-02-18T07:06:10.539Z,1.00
2019-02-18T07:08:46.719Z,3.25
2019-02-18T07:11:19.042Z,3.00
2019-02-18T07:13:49.161Z,1.00
2019-02-18T07:16:19.113Z,5.50
2019-02-18T07:18:49.916Z,3.00
2019-02-18T07:21:20.133Z,3.00
2019-02-18T07:23:52.249Z,3.75
2019-02-18T07:26:22.216Z,6.75
2019-02-18T07:28:52.329Z,3.25
2019-02-18T07:31:22.558Z,6.25
2019-02-18T07:33:52.774Z,4.00
2019-02-18T07:36:23.098Z,4.00
2019-02-18T07:38:53.236Z,3.75
2019-02-18T07:41:23.845Z,4.50
2019-02-18T07:43:54.066Z,2.50
2019-02-18T07:46:24.616Z,1.00
2019-02-18T07:48:54.725Z,1.00
2019-02-18T07:51:28.849Z,4.00
2019-02-18T07:53:58.852Z,3.25
2019-02-18T07:56:29.932Z,1.50
2019-02-18T07:59:00.632Z,4.00
2019-02-18T08:01:31.358Z,3.50
2019-02-18T08:04:01.708Z,0.75
2019-02-18T08:06:32.552Z,1.50
2019-02-18T08:09:04.579Z,4.00
2019-02-18T08:11:35.277Z,3.50
2019-02-18T08:14:05.678Z,1.00
2019-02-18T08:16:35.889Z,1.00
2019-02-18T08:19:06.012Z,4.00
2019-02-18T08:21:36.648Z,3.75
2019-02-18T08:24:06.842Z,3.75
2019-02-18T08:26:37.365Z,5.00
2019-02-18T08:29:07.910Z,1.00
2019-02-18T08:31:39.128Z,6.25
2019-02-18T08:34:09.156Z,2.50
2019-02-18T08:36:40.004Z,4.50
2019-02-18T08:39:10.546Z,3.75
2019-02-18T08:41:41.993Z,3.00
2019-02-18T08:44:12.374Z,5.50
2019-02-18T08:46:42.417Z,3.00
2019-02-18T08:49:13.600Z,2.00
2019-02-18T08:51:44.192Z,2.50
2019-02-18T08:54:14.720Z,5.00
2019-02-18T08:56:44.849Z,6.00
2019-02-18T08:59:15.070Z,4.00
2019-02-18T09:01:45.286Z,3.00
2019-02-18T09:04:15.856Z,3.25
2019-02-18T09:06:46.132Z,1.00
2019-02-18T09:09:16.880Z,3.00
2019-02-18T09:11:47.140Z,4.00
2019-02-18T09:14:17.344Z,5.50
2019-02-18T09:16:47.540Z,6.25
2019-02-18T09:19:18.179Z,4.00
2019-02-18T09:21:50.156Z,5.75
2019-02-18T09:24:22.241Z,7.00
2019-02-18T09:26:52.524Z,9.00
2019-02-18T09:29:22.641Z,6.00
2019-02-18T09:31:52.912Z,4.75
2019-02-18T09:34:23.485Z,6.00
2019-02-18T09:36:56.008Z,4.50
2019-02-18T09:39:31.242Z,5.00
2019-02-18T09:41:57.556Z,4.50
2019-02-18T09:44:27.910Z,3.75
2019-02-18T09:46:58.628Z,6.00
2019-02-18T09:49:28.888Z,6.00
2019-02-18T09:51:58.975Z,7.50
2019-02-18T09:54:29.273Z,3.50
2019-02-18T09:56:59.689Z,6.00
2019-02-18T09:59:30.352Z,3.50
2019-02-18T10:02:00.546Z,6.25
2019-02-18T10:04:31.097Z,3.50
2019-02-18T10:07:01.813Z,3.75
2019-02-18T10:09:32.954Z,6.75
2019-02-18T10:12:03.184Z,8.75
2019-02-18T10:14:33.390Z,7.25
2019-02-18T10:17:03.632Z,7.00
2019-02-18T10:19:33.848Z,4.00
2019-02-18T10:22:04.050Z,3.00
2019-02-18T10:24:34.276Z,6.00
2019-02-18T10:27:05.047Z,4.50
2019-02-18T10:29:35.328Z,5.50
2019-02-18T10:32:05.652Z,3.25
2019-02-18T10:34:36.872Z,7.50
2019-02-18T10:37:07.540Z,4.50
2019-02-18T10:39:37.882Z,4.00
2019-02-18T10:42:08.018Z,9.50
2019-02-18T10:44:38.608Z,5.75
2019-02-18T10:47:09.344Z,6.00
2019-02-18T10:49:39.688Z,4.00
2019-02-18T10:52:10.413Z,4.00
2019-02-18T10:54:40.632Z,6.75
2019-02-18T10:57:12.773Z,3.00
2019-02-18T10:59:46.284Z,6.00
2019-02-18T11:02:16.935Z,9.00
2019-02-18T11:04:47.061Z,5.50
2019-02-18T11:07:17.284Z,7.50
2019-02-18T11:09:47.607Z,6.25
2019-02-18T11:12:17.732Z,6.75
2019-02-18T11:14:48.330Z,8.00
2019-02-18T11:17:18.794Z,9.50
2019-02-18T11:19:49.696Z,8.25
2019-02-18T11:22:20.152Z,3.50
2019-02-18T11:24:50.383Z,6.50
2019-02-18T11:27:21.588Z,6.00
2019-02-18T11:29:51.838Z,4.50
2019-02-18T11:32:22.553Z,6.00
2019-02-18T11:34:52.938Z,10.00
2019-02-18T11:37:23.116Z,0.00
2019-02-18T11:39:53.237Z,5.75
2019-02-18T11:42:23.440Z,8.50
2019-02-18T11:44:53.668Z,5.75
2019-02-18T11:47:23.917Z,4.50
2019-02-18T11:49:55.297Z,6.25
2019-02-18T11:52:26.448Z,6.75
2019-02-18T11:54:56.713Z,7.25
2019-02-18T11:57:26.943Z,7.00
2019-02-18T11:59:57.240Z,7.25
2019-02-18T12:02:28.026Z,9.25
2019-02-18T12:04:58.219Z,6.75
2019-02-18T12:07:29.735Z,5.50
2019-02-18T12:09:59.922Z,4.75
2019-02-18T12:12:31.112Z,7.00
2019-02-18T12:15:01.570Z,6.75
2019-02-18T12:17:32.106Z,4.00
2019-02-18T12:20:02.413Z,8.75
2019-02-18T12:22:32.612Z,6.25
2019-02-18T12:25:02.848Z,6.50
2019-02-18T12:27:33.576Z,5.00
2019-02-18T12:30:04.204Z,7.00
2019-02-18T12:32:34.361Z,7.00
2019-02-18T12:35:05.154Z,7.00
2019-02-18T12:37:35.796Z,7.00
2019-02-18T12:40:13.916Z,3.00
2019-02-18T12:42:44.161Z,6.00
2019-02-18T12:45:14.498Z,3.00
2019-02-18T12:47:44.456Z,10.00
2019-02-18T12:50:15.497Z,6.25
2019-02-18T12:52:46.021Z,5.50
2019-02-18T12:55:16.607Z,7.00
2019-02-18T12:57:47.012Z,3.25
2019-02-18T13:00:17.762Z,4.00
2019-02-18T13:02:48.075Z,6.00
2019-02-18T13:05:18.982Z,6.00
2019-02-18T13:07:49.526Z,7.50
2019-02-18T13:10:19.660Z,8.00
2019-02-18T13:12:50.492Z,9.00
2019-02-18T13:15:20.817Z,3.75
2019-02-18T13:17:50.908Z,7.50
2019-02-18T13:20:21.257Z,6.25
2019-02-18T13:22:51.843Z,8.00
2019-02-18T13:25:22.192Z,8.00
2019-02-18T13:27:52.420Z,9.25
2019-02-18T13:30:22.687Z,5.50
2019-02-18T13:32:53.477Z,3.50
2019-02-18T13:35:23.717Z,3.00
2019-02-18T13:37:53.934Z,7.25
2019-02-18T13:40:24.255Z,3.00
2019-02-18T13:42:54.391Z,8.00
2019-02-18T13:45:24.625Z,4.00
2019-02-18T13:47:54.934Z,8.00
2019-02-18T13:50:25.053Z,9.75
2019-02-18T13:52:55.290Z,9.50
2019-02-18T13:55:25.594Z,6.75
2019-02-18T13:57:55.668Z,11.00
2019-02-18T14:00:26.553Z,7.50
2019-02-18T14:02:57.152Z,7.00
2019-02-18T14:05:27.666Z,2.00
2019-02-18T14:08:01.629Z,7.25
2019-02-18T14:10:31.737Z,6.00
2019-02-18T14:13:01.987Z,12.50
2019-02-18T14:15:32.155Z,9.00
2019-02-18T14:18:02.643Z,10.00
2019-02-18T14:20:33.017Z,7.00
2019-02-18T14:23:03.265Z,9.75
2019-02-18T14:25:33.385Z,9.75
2019-02-18T14:28:03.989Z,3.25
2019-02-18T14:30:34.534Z,7.00
2019-02-18T14:33:04.716Z,10.75
2019-02-18T14:35:35.184Z,5.75
2019-02-18T14:38:05.425Z,7.50
2019-02-18T14:40:35.651Z,6.25
2019-02-18T14:43:06.040Z,7.00
2019-02-18T14:45:36.149Z,8.00
2019-02-18T14:48:06.885Z,4.00
2019-02-18T14:50:37.235Z,5.50
2019-02-18T14:53:07.472Z,4.50
2019-02-18T14:55:37.649Z,6.00
2019-02-18T14:58:08.675Z,4.00
2019-02-18T15:00:39.250Z,6.75
2019-02-18T15:03:09.856Z,6.75
2019-02-18T15:05:40.592Z,3.75
2019-02-18T15:08:13.962Z,4.00
2019-02-18T15:10:44.513Z,5.50
2019-02-18T15:13:15.355Z,6.25
2019-02-18T15:15:45.880Z,4.50
2019-02-18T15:18:16.089Z,3.75
2019-02-18T15:20:46.383Z,2.50
2019-02-18T15:23:16.444Z,3.50
2019-02-18T15:25:47.062Z,3.25
2019-02-18T15:28:18.473Z,3.00
2019-02-18T15:30:49.076Z,2.50
2019-02-18T15:33:19.189Z,5.50
2019-02-18T15:35:49.419Z,3.00
2019-02-18T15:38:20.035Z,3.75
2019-02-18T15:40:50.258Z,2.50
2019-02-18T15:43:21.390Z,3.75
2019-02-18T15:45:51.505Z,3.00
2019-02-18T15:48:21.824Z,3.50
2019-02-18T15:50:52.297Z,3.00
2019-02-18T15:53:23.101Z,1.00
2019-02-18T15:55:54.212Z,1.50
2019-02-18T15:58:24.776Z,6.00
2019-02-18T16:00:55.180Z,1.00
2019-02-18T16:03:25.208Z,1.00
2019-02-18T16:05:55.140Z,0.00
2019-02-18T16:08:25.990Z,3.00
2019-02-18T16:10:56.212Z,3.00
2019-02-18T16:13:26.220Z,1.00
2019-02-18T16:15:56.721Z,3.25
2019-02-18T16:18:26.949Z,3.00
2019-02-18T16:20:57.832Z,5.50
2019-02-18T16:23:28.563Z,0.75
2019-02-18T16:25:59.144Z,0.25
2019-02-18T16:28:30.401Z,3.00
2019-02-18T16:31:00.417Z,3.00
2019-02-18T16:33:31.249Z,1.00
2019-02-18T16:36:01.934Z,4.00
2019-02-18T16:38:32.412Z,1.00
2019-02-18T16:41:02.865Z,3.00
2019-02-18T16:43:33.986Z,1.00
2019-02-18T16:46:04.816Z,3.75
2019-02-18T16:48:35.364Z,1.00
2019-02-18T16:51:05.983Z,3.00
2019-02-18T16:53:36.193Z,0.50
2019-02-18T16:56:06.344Z,0.25
2019-02-18T16:58:36.591Z,3.75
2019-02-18T17:01:08.101Z,0.75
2019-02-18T17:03:38.932Z,1.00
2019-02-18T17:06:09.060Z,2.50
2019-02-18T17:08:39.292Z,1.00
2019-02-18T17:11:09.637Z,0.00
2019-02-18T17:13:40.147Z,0.75
2019-02-18T17:16:10.636Z,2.50
2019-02-18T17:18:40.769Z,1.00
2019-02-18T17:21:11.455Z,3.00
2019-02-18T17:23:41.936Z,1.00
2019-02-18T17:26:12.643Z,2.00
2019-02-18T17:28:42.919Z,1.00
2019-02-18T17:31:13.438Z,0.25
2019-02-18T17:33:43.636Z,1.00
2019-02-18T17:36:14.461Z,1.00
2019-02-18T17:38:45.096Z,2.00
2019-02-18T17:41:15.057Z,1.00
2019-02-18T17:43:45.127Z,0.00
2019-02-18T17:46:15.360Z,1.50
2019-02-18T17:48:45.999Z,1.00
2019-02-18T17:51:16.428Z,3.00
2019-02-18T17:53:47.044Z,0.00
2019-02-18T17:56:17.284Z,0.00
2019-02-18T17:58:48.104Z,1.00
2019-02-18T18:01:18.339Z,0.00
2019-02-18T18:03:48.560Z,1.00
2019-02-18T18:06:18.379Z,1.50
2019-02-18T18:08:48.604Z,3.00
2019-02-18T18:11:18.939Z,0.00
2019-02-18T18:13:49.951Z,0.25
2019-02-18T18:16:20.588Z,3.00
2019-02-18T18:18:51.114Z,3.50
2019-02-18T18:21:21.356Z,1.50
2019-02-18T18:23:51.859Z,1.00
2019-02-18T18:26:22.396Z,0.25
2019-02-18T18:28:52.508Z,1.00
2019-02-18T18:31:22.744Z,0.00
2019-02-18T18:33:53.567Z,1.00
2019-02-18T18:36:23.912Z,0.25
2019-02-18T18:38:54.016Z,0.50
2019-02-18T18:41:24.229Z,1.00
2019-02-18T18:43:55.074Z,1.00
2019-02-18T18:46:25.720Z,1.00
2019-02-18T18:48:55.840Z,1.00
2019-02-18T18:51:26.172Z,1.00
2019-02-18T18:53:57.190Z,0.75
2019-02-18T18:56:27.795Z,1.00
2019-02-18T18:58:57.985Z,5.50
2019-02-18T19:01:28.802Z,3.25
2019-02-18T19:03:59.021Z,3.00
2019-02-18T19:06:30.556Z,2.50
2019-02-18T19:09:03.829Z,1.00
2019-02-18T19:11:33.972Z,3.50
2019-02-18T19:14:04.216Z,4.00
2019-02-18T19:16:34.810Z,1.50
2019-02-18T19:19:05.260Z,1.00
2019-02-18T19:21:35.497Z,5.25
2019-02-18T19:24:05.695Z,3.25
2019-02-18T19:26:36.159Z,5.50
2019-02-18T19:29:06.557Z,4.50
2019-02-18T19:31:36.656Z,2.50
2019-02-18T19:34:06.988Z,0.00
2019-02-18T19:36:37.100Z,4.00
2019-02-18T19:39:08.029Z,6.00
2019-02-18T19:41:38.572Z,4.25
2019-02-18T19:44:09.309Z,4.50
2019-02-18T19:46:40.144Z,6.00
2019-02-18T19:49:10.856Z,6.00
2019-02-18T19:51:41.001Z,3.50
2019-02-18T19:54:11.114Z,3.50
2019-02-18T19:56:41.441Z,6.00
2019-02-18T19:59:12.109Z,4.00
2019-02-18T20:01:42.793Z,4.00
2019-02-18T20:04:12.933Z,4.00
2019-02-18T20:06:43.273Z,4.75
2019-02-18T20:09:15.530Z,5.00
2019-02-18T20:11:46.048Z,4.00
2019-02-18T20:14:16.274Z,3.25
2019-02-18T20:16:46.476Z,7.00
2019-02-18T20:19:17.332Z,3.25
2019-02-18T20:21:48.788Z,3.50
2019-02-18T20:24:19.917Z,2.50
2019-02-18T20:26:50.562Z,4.00
2019-02-18T20:29:21.059Z,3.75
2019-02-18T20:31:51.647Z,1.00
2019-02-18T20:34:22.459Z,0.50
2019-02-18T20:36:52.955Z,3.25
2019-02-18T20:39:23.500Z,4.00
2019-02-18T20:41:54.540Z,0.75
2019-02-18T20:44:24.796Z,1.50
2019-02-18T20:46:55.009Z,0.75
2019-02-18T20:49:25.252Z,1.00
2019-02-18T20:51:56.753Z,3.00
2019-02-18T20:54:26.982Z,3.00
2019-02-18T20:56:57.236Z,0.50
2019-02-18T20:59:27.315Z,1.00
2019-02-18T21:01:57.959Z,1.00
2019-02-18T21:04:29.393Z,3.00
2019-02-18T21:06:59.530Z,1.00
2019-02-18T21:09:30.782Z,2.00
2019-02-18T21:12:01.279Z,1.00
2019-02-18T21:14:32.057Z,3.00
2019-02-18T21:17:02.661Z,0.00
2019-02-18T21:19:32.973Z,1.00
2019-02-18T21:22:03.029Z,1.50
2019-02-18T21:24:33.523Z,1.50
2019-02-18T21:27:03.774Z,2.00
2019-02-18T21:29:34.512Z,0.00
2019-02-18T21:32:04.930Z,0.75
2019-02-18T21:34:35.648Z,0.50
2019-02-18T21:37:06.294Z,1.50
2019-02-18T21:39:37.014Z,0.00
2019-02-18T21:42:07.635Z,1.00
2019-02-18T21:44:38.180Z,2.50
2019-02-18T21:47:08.697Z,2.00
2019-02-18T21:49:38.843Z,3.00
2019-02-18T21:52:09.151Z,6.00
2019-02-18T21:54:39.884Z,3.00
2019-02-18T21:57:10.508Z,3.00
2019-02-18T21:59:40.933Z,3.00
2019-02-18T22:02:11.160Z,2.00
2019-02-18T22:04:41.501Z,1.00
2019-02-18T22:07:11.654Z,1.00
2019-02-18T22:09:42.224Z,0.00
2019-02-18T22:12:13.219Z,2.50
2019-02-18T22:14:43.321Z,1.00
2019-02-18T22:17:13.732Z,0.75
2019-02-18T22:19:43.931Z,1.00
2019-02-18T22:22:14.419Z,1.00
2019-02-18T22:24:45.104Z,3.00
2019-02-18T22:27:16.232Z,0.75
2019-02-18T22:29:47.105Z,1.00
2019-02-18T22:32:17.916Z,0.00
2019-02-18T22:34:48.037Z,3.00
2019-02-18T22:37:18.387Z,1.00
2019-02-18T22:39:48.497Z,2.50
2019-02-18T22:42:18.711Z,1.00
2019-02-18T22:44:49.338Z,2.50
2019-02-18T22:47:19.654Z,1.00
2019-02-18T22:49:50.073Z,3.00
2019-02-18T22:52:20.520Z,3.75
2019-02-18T22:54:51.452Z,2.50
2019-02-18T22:57:21.968Z,5.00
2019-02-18T22:59:52.127Z,5.00
2019-02-18T23:02:22.635Z,4.00
2019-02-18T23:04:52.870Z,3.50
2019-02-18T23:07:23.488Z,4.75
2019-02-18T23:09:54.025Z,3.25
2019-02-18T23:12:24.764Z,1.00
2019-02-18T23:14:54.993Z,5.00
2019-02-18T23:17:25.284Z,3.50
2019-02-18T23:19:55.507Z,5.00
2019-02-18T23:22:26.269Z,2.50
2019-02-18T23:24:56.561Z,3.00
2019-02-18T23:27:26.795Z,0.00
2019-02-18T23:29:57.308Z,3.50
2019-02-18T23:32:27.981Z,0.75
2019-02-18T23:34:58.736Z,5.00
2019-02-18T23:37:29.049Z,1.50
2019-02-18T23:40:01.729Z,3.00
2019-02-18T23:42:32.424Z,2.00
2019-02-18T23:45:02.936Z,4.00
2019-02-18T23:47:33.472Z,3.00
2019-02-18T23:50:05.072Z,5.00
2019-02-18T23:52:35.348Z,3.00
2019-02-18T23:55:06.281Z,1.00
2019-02-18T23:57:36.840Z,1.00
